createdAt,value
2022-08-31T00:00:30.206Z,94.53
2022-08-31T00:01:30.201Z,94.93
2022-08-31T00:02:30.251Z,94.84
2022-08-31T00:03:30.191Z,94.73
2022-08-31T00:04:30.271Z,94.73
2022-08-31T00:05:30.177Z,94.98
2022-08-31T00:06:30.173Z,94.53
2022-08-31T00:07:30.163Z,95.29
2022-08-31T00:08:30.160Z,95.14
2022-08-31T00:09:30.154Z,95.29
2022-08-31T00:10:32.767Z,95.59
2022-08-31T00:11:30.142Z,95.18
2022-08-31T00:12:30.139Z,95.18
2022-08-31T00:13:30.319Z,96.00
2022-08-31T00:14:30.128Z,96.00
2022-08-31T00:15:30.259Z,95.79
2022-08-31T00:16:30.200Z,95.39
2022-08-31T00:17:30.110Z,95.79
2022-08-31T00:18:30.105Z,95.79
2022-08-31T00:19:30.098Z,96.30
2022-08-31T00:20:33.280Z,96.10
2022-08-31T00:21:30.089Z,96.66
2022-08-31T00:22:30.083Z,96.35
2022-08-31T00:23:30.073Z,96.35
2022-08-31T00:24:30.069Z,96.66
2022-08-31T00:25:30.063Z,96.66
2022-08-31T00:26:30.055Z,96.86
2022-08-31T00:27:30.053Z,96.66
2022-08-31T00:28:30.047Z,96.66
2022-08-31T00:29:30.041Z,97.06
2022-08-31T00:30:30.066Z,96.76
2022-08-31T00:31:30.223Z,96.76
2022-08-31T00:32:30.030Z,96.86
2022-08-31T00:33:30.020Z,97.88
2022-08-31T00:34:30.015Z,97.57
2022-08-31T00:35:30.007Z,97.67
2022-08-31T00:36:30.004Z,97.37
2022-08-31T00:37:29.996Z,96.66
2022-08-31T00:38:29.991Z,97.47
2022-08-31T00:39:29.990Z,96.96
2022-08-31T00:40:30.031Z,97.98
2022-08-31T00:41:29.975Z,97.67
2022-08-31T00:42:29.967Z,97.57
2022-08-31T00:43:29.962Z,97.88
2022-08-31T00:44:29.954Z,97.78
2022-08-31T00:45:29.984Z,97.16
2022-08-31T00:46:29.947Z,97.37
2022-08-31T00:47:29.947Z,97.47
2022-08-31T00:48:29.931Z,97.88
2022-08-31T00:49:29.932Z,97.78
2022-08-31T00:50:29.924Z,97.57
2022-08-31T00:51:29.918Z,97.72
2022-08-31T00:52:29.914Z,97.82
2022-08-31T00:53:29.907Z,97.82
2022-08-31T00:54:29.897Z,97.88
2022-08-31T00:55:29.900Z,98.23
2022-08-31T00:56:29.887Z,98.13
2022-08-31T00:57:34.323Z,98.13
2022-08-31T00:58:29.877Z,98.33
2022-08-31T00:59:29.869Z,98.13
2022-08-31T01:00:29.865Z,98.02
2022-08-31T01:01:29.896Z,97.92
2022-08-31T01:02:29.917Z,98.43
2022-08-31T01:03:29.853Z,98.23
2022-08-31T01:04:29.842Z,97.92
2022-08-31T01:05:29.836Z,97.92
2022-08-31T01:06:29.829Z,98.02
2022-08-31T01:07:29.822Z,98.02
2022-08-31T01:08:30.997Z,98.23
2022-08-31T01:09:29.811Z,98.23
2022-08-31T01:10:29.807Z,97.97
2022-08-31T01:11:29.807Z,98.13
2022-08-31T01:12:29.793Z,98.94
2022-08-31T01:13:29.789Z,98.74
2022-08-31T01:14:29.783Z,98.74
2022-08-31T01:15:29.776Z,98.74
2022-08-31T01:16:29.821Z,98.54
2022-08-31T01:17:29.764Z,98.64
2022-08-31T01:18:29.760Z,99.04
2022-08-31T01:19:29.760Z,99.35
2022-08-31T01:20:29.758Z,99.45
2022-08-31T01:21:29.742Z,99.35
2022-08-31T01:22:29.734Z,99.35
2022-08-31T01:23:29.730Z,99.45
2022-08-31T01:24:29.726Z,99.35
2022-08-31T01:25:33.546Z,99.35
2022-08-31T01:26:29.713Z,99.35
2022-08-31T01:27:29.706Z,99.25
2022-08-31T01:28:29.700Z,99.45
2022-08-31T01:29:29.698Z,99.25
2022-08-31T01:30:29.690Z,99.35
2022-08-31T01:31:29.758Z,98.79
2022-08-31T01:32:29.676Z,98.79
2022-08-31T01:33:29.672Z,98.79
2022-08-31T01:34:29.666Z,98.69
2022-08-31T01:35:29.663Z,98.28
2022-08-31T01:36:29.652Z,98.28
2022-08-31T01:37:30.381Z,98.08
2022-08-31T01:38:29.639Z,97.98
2022-08-31T01:39:29.635Z,97.93
2022-08-31T01:40:29.694Z,97.73
2022-08-31T01:41:29.627Z,97.42
2022-08-31T01:42:32.886Z,97.22
2022-08-31T01:43:29.621Z,97.73
2022-08-31T01:44:29.611Z,97.12
2022-08-31T01:45:29.599Z,97.42
2022-08-31T01:46:29.623Z,97.32
2022-08-31T01:47:29.587Z,97.22
2022-08-31T01:48:29.585Z,97.53
2022-08-31T01:49:29.575Z,97.42
2022-08-31T01:50:29.572Z,97.83
2022-08-31T01:51:29.568Z,97.73
2022-08-31T01:52:29.561Z,97.83
2022-08-31T01:53:29.556Z,97.63
2022-08-31T01:54:29.555Z,97.63
2022-08-31T01:55:29.544Z,97.22
2022-08-31T01:56:29.539Z,97.73
2022-08-31T01:57:33.704Z,97.83
2022-08-31T01:58:29.528Z,97.83
2022-08-31T01:59:29.520Z,97.73
2022-08-31T02:00:29.512Z,97.48
2022-08-31T02:01:33.886Z,97.53
2022-08-31T02:02:29.550Z,97.58
2022-08-31T02:03:29.498Z,96.67
2022-08-31T02:04:29.491Z,96.67
2022-08-31T02:05:29.491Z,96.56
2022-08-31T02:06:29.481Z,96.97
2022-08-31T02:07:29.472Z,97.58
2022-08-31T02:08:29.468Z,97.69
2022-08-31T02:09:29.461Z,96.77
2022-08-31T02:10:29.457Z,97.69
2022-08-31T02:11:29.453Z,96.97
2022-08-31T02:12:29.443Z,96.67
2022-08-31T02:13:29.440Z,97.63
2022-08-31T02:14:29.428Z,97.48
2022-08-31T02:15:29.446Z,97.73
2022-08-31T02:16:29.467Z,97.17
2022-08-31T02:17:29.418Z,97.38
2022-08-31T02:18:29.411Z,97.48
2022-08-31T02:19:29.403Z,97.48
2022-08-31T02:20:29.399Z,96.97
2022-08-31T02:21:29.391Z,97.69
2022-08-31T02:22:29.386Z,97.58
2022-08-31T02:23:29.382Z,97.02
2022-08-31T02:24:29.384Z,97.53
2022-08-31T02:25:29.367Z,97.53
2022-08-31T02:26:29.363Z,97.63
2022-08-31T02:27:29.358Z,97.53
2022-08-31T02:28:29.352Z,97.83
2022-08-31T02:29:29.346Z,97.63
2022-08-31T02:30:29.339Z,97.73
2022-08-31T02:31:29.385Z,97.93
2022-08-31T02:32:29.328Z,97.93
2022-08-31T02:33:29.323Z,97.83
2022-08-31T02:34:29.318Z,97.93
2022-08-31T02:35:29.313Z,97.83
2022-08-31T02:36:29.308Z,97.63
2022-08-31T02:37:29.326Z,97.63
2022-08-31T02:38:29.293Z,97.63
2022-08-31T02:39:29.287Z,97.63
2022-08-31T02:40:29.329Z,97.83
2022-08-31T02:41:29.276Z,97.93
2022-08-31T02:42:33.092Z,98.03
2022-08-31T02:43:29.263Z,97.93
2022-08-31T02:44:29.264Z,97.93
2022-08-31T02:45:29.251Z,98.34
2022-08-31T02:46:29.306Z,98.24
2022-08-31T02:47:29.243Z,98.49
2022-08-31T02:48:29.234Z,98.69
2022-08-31T02:49:29.229Z,99.26
2022-08-31T02:50:29.223Z,99.30
2022-08-31T02:51:29.216Z,99.10
2022-08-31T02:52:29.212Z,99.10
2022-08-31T02:53:29.206Z,99.41
2022-08-31T02:54:29.203Z,99.41
2022-08-31T02:55:29.192Z,99.20
2022-08-31T02:56:29.189Z,99.20
2022-08-31T02:57:29.181Z,99.61
2022-08-31T02:58:29.175Z,99.41
2022-08-31T02:59:29.168Z,99.41
2022-08-31T03:00:29.167Z,99.51
2022-08-31T03:01:29.228Z,99.61
2022-08-31T03:02:31.818Z,99.61
2022-08-31T03:03:29.142Z,99.76
2022-08-31T03:04:29.140Z,99.99
2022-08-31T03:05:29.133Z,99.99
2022-08-31T03:06:29.130Z,99.55
2022-08-31T03:07:29.119Z,99.86
2022-08-31T03:08:31.014Z,99.45
2022-08-31T03:09:29.104Z,99.96
2022-08-31T03:10:29.108Z,99.99
2022-08-31T03:11:29.095Z,99.99
2022-08-31T03:12:29.092Z,99.99
2022-08-31T03:13:29.084Z,99.99
2022-08-31T03:14:29.083Z,99.99
2022-08-31T03:15:29.097Z,99.99
2022-08-31T03:16:29.070Z,99.99
2022-08-31T03:17:29.060Z,99.99
2022-08-31T03:18:29.055Z,99.99
2022-08-31T03:19:29.048Z,99.99
2022-08-31T03:20:29.042Z,99.99
2022-08-31T03:21:29.033Z,99.99
2022-08-31T03:22:29.033Z,99.99
2022-08-31T03:23:29.024Z,99.99
2022-08-31T03:24:29.015Z,99.99
2022-08-31T03:25:29.014Z,99.99
2022-08-31T03:26:29.011Z,99.99
2022-08-31T03:27:29.000Z,99.99
2022-08-31T03:28:28.995Z,99.99
2022-08-31T03:29:28.986Z,99.99
2022-08-31T03:30:29.965Z,99.99
2022-08-31T03:31:29.003Z,99.99
2022-08-31T03:32:28.967Z,99.99
2022-08-31T03:33:28.962Z,99.99
2022-08-31T03:34:28.960Z,99.99
2022-08-31T03:35:28.946Z,99.99
2022-08-31T03:36:28.944Z,99.99
2022-08-31T03:37:28.941Z,99.99
2022-08-31T03:38:28.932Z,99.99
2022-08-31T03:39:28.930Z,99.99
2022-08-31T03:40:28.970Z,99.99
2022-08-31T03:41:28.917Z,99.99
2022-08-31T03:42:28.906Z,99.99
2022-08-31T03:43:28.897Z,99.99
2022-08-31T03:44:28.892Z,99.99
2022-08-31T03:45:28.894Z,99.99
2022-08-31T03:46:28.911Z,99.99
2022-08-31T03:47:28.875Z,99.99
2022-08-31T03:48:28.867Z,99.99
2022-08-31T03:49:28.867Z,99.99
2022-08-31T03:50:28.859Z,99.99
2022-08-31T03:51:28.854Z,99.99
2022-08-31T03:52:28.840Z,99.99
2022-08-31T03:53:28.836Z,99.99
2022-08-31T03:54:28.840Z,99.99
2022-08-31T03:55:28.823Z,99.99
2022-08-31T03:56:28.815Z,99.99
2022-08-31T03:57:28.810Z,99.99
2022-08-31T03:58:28.802Z,99.99
2022-08-31T03:59:28.797Z,99.99
2022-08-31T04:00:28.800Z,99.99
2022-08-31T04:01:28.811Z,99.99
2022-08-31T04:02:29.307Z,99.99
2022-08-31T04:03:28.772Z,99.99
2022-08-31T04:04:28.767Z,99.99
2022-08-31T04:05:28.760Z,99.99
2022-08-31T04:06:28.754Z,99.99
2022-08-31T04:07:28.747Z,99.99
2022-08-31T04:08:28.741Z,99.99
2022-08-31T04:09:28.737Z,99.99
2022-08-31T04:10:28.730Z,99.99
2022-08-31T04:11:44.209Z,99.99
2022-08-31T04:12:28.722Z,99.99
2022-08-31T04:13:30.361Z,99.99
2022-08-31T04:14:28.713Z,99.99
2022-08-31T04:15:29.292Z,99.99
2022-08-31T04:16:28.688Z,99.99
2022-08-31T04:17:28.681Z,99.99
2022-08-31T04:18:28.676Z,99.99
2022-08-31T04:19:31.329Z,99.99
2022-08-31T04:20:29.860Z,99.99
2022-08-31T04:21:28.653Z,99.99
2022-08-31T04:22:28.651Z,99.99
2022-08-31T04:23:28.644Z,99.99
2022-08-31T04:24:28.640Z,99.99
2022-08-31T04:25:28.631Z,99.99
2022-08-31T04:26:28.627Z,99.99
2022-08-31T04:27:28.617Z,99.99
2022-08-31T04:28:28.613Z,99.99
2022-08-31T04:29:28.637Z,99.99
2022-08-31T04:30:28.599Z,99.99
2022-08-31T04:31:28.662Z,99.99
2022-08-31T04:32:28.583Z,99.99
2022-08-31T04:33:28.580Z,99.99
2022-08-31T04:34:28.576Z,99.99
2022-08-31T04:35:28.566Z,99.99
2022-08-31T04:36:28.560Z,99.99
2022-08-31T04:37:28.551Z,99.99
2022-08-31T04:38:28.548Z,99.99
2022-08-31T04:39:28.537Z,99.99
2022-08-31T04:40:28.579Z,99.99
2022-08-31T04:41:28.525Z,99.99
2022-08-31T04:42:28.523Z,99.99
2022-08-31T04:43:28.510Z,99.99
2022-08-31T04:44:28.510Z,99.99
2022-08-31T04:45:28.512Z,99.99
2022-08-31T04:46:28.498Z,99.99
2022-08-31T04:47:28.484Z,99.99
2022-08-31T04:48:28.478Z,99.99
2022-08-31T04:49:28.476Z,99.99
2022-08-31T04:50:28.471Z,99.99
2022-08-31T04:51:28.459Z,99.99
2022-08-31T04:52:28.593Z,99.99
2022-08-31T04:53:28.448Z,99.99
2022-08-31T04:54:28.438Z,99.99
2022-08-31T04:55:28.434Z,99.99
2022-08-31T04:56:28.429Z,99.99
2022-08-31T04:57:28.422Z,99.99
2022-08-31T04:58:28.416Z,99.99
2022-08-31T04:59:28.410Z,99.99
2022-08-31T05:00:28.411Z,99.99
2022-08-31T05:01:28.510Z,99.99
2022-08-31T05:02:28.453Z,99.99
2022-08-31T05:03:28.384Z,99.99
2022-08-31T05:04:28.376Z,99.99
2022-08-31T05:05:28.376Z,99.99
2022-08-31T05:06:28.369Z,99.99
2022-08-31T05:07:28.358Z,99.99
2022-08-31T05:08:28.356Z,99.95
2022-08-31T05:09:28.346Z,99.99
2022-08-31T05:10:28.339Z,99.99
2022-08-31T05:11:28.334Z,99.91
2022-08-31T05:12:28.326Z,99.60
2022-08-31T05:13:28.321Z,99.76
2022-08-31T05:14:28.312Z,99.15
2022-08-31T05:15:28.306Z,99.15
2022-08-31T05:16:28.356Z,98.39
2022-08-31T05:17:28.294Z,96.51
2022-08-31T05:18:28.291Z,95.40
2022-08-31T05:19:28.282Z,93.12
2022-08-31T05:20:28.282Z,91.97
2022-08-31T05:21:28.272Z,89.50
2022-08-31T05:22:28.266Z,88.54
2022-08-31T05:23:28.261Z,85.76
2022-08-31T05:24:28.254Z,85.82
2022-08-31T05:25:28.248Z,85.07
2022-08-31T05:26:28.241Z,83.55
2022-08-31T05:27:28.234Z,84.06
2022-08-31T05:28:28.231Z,83.61
2022-08-31T05:29:28.223Z,83.41
2022-08-31T05:30:28.228Z,82.20
2022-08-31T05:31:28.258Z,83.01
2022-08-31T05:32:28.206Z,82.46
2022-08-31T05:33:28.203Z,80.40
2022-08-31T05:34:28.211Z,81.65
2022-08-31T05:35:28.191Z,81.76
2022-08-31T05:36:28.189Z,80.50
2022-08-31T05:37:28.188Z,81.79
2022-08-31T05:38:28.178Z,81.96
2022-08-31T05:39:28.171Z,81.25
2022-08-31T05:40:28.219Z,81.31
2022-08-31T05:41:28.163Z,78.85
2022-08-31T05:42:28.157Z,79.38
2022-08-31T05:43:28.159Z,77.53
2022-08-31T05:44:29.451Z,77.76
2022-08-31T05:45:28.147Z,79.25
2022-08-31T05:46:28.149Z,79.55
2022-08-31T05:47:28.132Z,79.11
2022-08-31T05:48:29.948Z,79.25
2022-08-31T05:49:28.287Z,79.21
2022-08-31T05:50:28.131Z,78.06
2022-08-31T05:51:28.117Z,77.93
2022-08-31T05:52:28.113Z,77.62
2022-08-31T05:53:28.109Z,75.94
2022-08-31T05:54:28.106Z,75.34
2022-08-31T05:55:28.101Z,75.63
2022-08-31T05:56:28.095Z,73.95
2022-08-31T05:57:28.092Z,73.99
2022-08-31T05:58:28.090Z,73.75
2022-08-31T05:59:28.084Z,72.67
2022-08-31T06:00:28.083Z,73.28
2022-08-31T06:01:28.112Z,73.85
2022-08-31T06:02:29.470Z,73.11
2022-08-31T06:03:28.070Z,71.97
2022-08-31T06:04:28.068Z,73.11
2022-08-31T06:05:28.103Z,73.05
2022-08-31T06:06:28.060Z,73.41
2022-08-31T06:07:28.064Z,72.74
2022-08-31T06:08:28.054Z,71.94
2022-08-31T06:09:28.052Z,67.95
2022-08-31T06:10:28.075Z,66.31
2022-08-31T06:11:28.047Z,67.65
2022-08-31T06:12:28.043Z,67.29
2022-08-31T06:13:28.039Z,66.05
2022-08-31T06:14:28.044Z,64.18
2022-08-31T06:15:28.036Z,60.95
2022-08-31T06:16:28.089Z,64.18
2022-08-31T06:17:28.031Z,64.45
2022-08-31T06:18:28.029Z,65.65
2022-08-31T06:19:28.034Z,64.36
2022-08-31T06:20:28.086Z,61.42
2022-08-31T06:21:28.020Z,63.58
2022-08-31T06:22:28.023Z,63.42
2022-08-31T06:23:28.054Z,63.98
2022-08-31T06:24:28.020Z,63.32
2022-08-31T06:25:28.027Z,61.42
2022-08-31T06:26:28.018Z,61.85
2022-08-31T06:27:28.011Z,63.42
2022-08-31T06:28:28.014Z,62.46
2022-08-31T06:29:28.012Z,61.16
2022-08-31T06:30:28.092Z,60.36
2022-08-31T06:31:28.101Z,61.41
2022-08-31T06:32:28.003Z,58.15
2022-08-31T06:33:28.008Z,58.78
2022-08-31T06:34:28.003Z,58.55
2022-08-31T06:35:28.003Z,56.90
2022-08-31T06:36:28.218Z,55.18
2022-08-31T06:37:27.999Z,56.04
2022-08-31T06:38:28.001Z,61.55
2022-08-31T06:39:27.994Z,63.87
2022-08-31T06:40:28.080Z,63.78
2022-08-31T06:41:28.008Z,64.22
2022-08-31T06:42:27.999Z,63.61
2022-08-31T06:43:27.994Z,63.48
2022-08-31T06:44:27.998Z,63.42
2022-08-31T06:45:27.994Z,62.68
2022-08-31T06:46:28.101Z,62.61
2022-08-31T06:47:27.989Z,62.84
2022-08-31T06:48:28.058Z,63.31
2022-08-31T06:49:27.993Z,62.01
2022-08-31T06:50:27.993Z,62.14
2022-08-31T06:51:27.998Z,63.64
2022-08-31T06:52:27.991Z,64.51
2022-08-31T06:53:27.989Z,64.34
2022-08-31T06:54:29.901Z,61.78
2022-08-31T06:55:27.991Z,60.59
2022-08-31T06:56:27.991Z,57.87
2022-08-31T06:57:27.995Z,59.09
2022-08-31T06:58:35.153Z,59.04
2022-08-31T07:00:31.985Z,59.35
2022-08-31T07:01:35.381Z,60.28
2022-08-31T07:03:35.974Z,59.78
2022-08-31T07:04:35.980Z,61.72
2022-08-31T07:06:39.983Z,56.68
2022-08-31T07:07:39.971Z,57.93
2022-08-31T07:09:32.890Z,58.22
2022-08-31T07:10:32.881Z,58.92
2022-08-31T07:12:37.385Z,58.55
2022-08-31T07:13:37.374Z,59.38
2022-08-31T07:14:37.375Z,60.05
2022-08-31T07:15:37.375Z,59.02
2022-08-31T07:16:37.424Z,58.65
2022-08-31T07:17:37.377Z,59.81
2022-08-31T07:18:37.377Z,60.27
2022-08-31T07:19:37.379Z,61.27
2022-08-31T07:20:37.377Z,62.27
2022-08-31T07:21:37.378Z,60.81
2022-08-31T07:22:37.378Z,60.38
2022-08-31T07:23:37.381Z,59.98
2022-08-31T07:24:37.381Z,60.25
2022-08-31T07:25:37.381Z,58.58
2022-08-31T07:26:37.383Z,60.06
2022-08-31T07:27:37.381Z,61.43
2022-08-31T07:28:37.383Z,63.46
2022-08-31T07:29:37.386Z,64.04
2022-08-31T07:30:37.452Z,64.14
2022-08-31T07:31:37.383Z,64.24
2022-08-31T07:32:37.383Z,62.76
2022-08-31T07:33:37.383Z,64.10
2022-08-31T07:34:37.385Z,65.84
2022-08-31T07:35:37.383Z,64.23
2022-08-31T07:36:37.383Z,65.44
2022-08-31T07:37:37.384Z,65.70
2022-08-31T07:38:37.382Z,65.30
2022-08-31T07:39:37.380Z,65.80
2022-08-31T07:40:37.410Z,66.43
2022-08-31T07:41:37.380Z,66.36
2022-08-31T07:42:37.375Z,66.27
2022-08-31T07:43:37.375Z,66.30
2022-08-31T07:44:37.376Z,66.39
2022-08-31T07:45:39.412Z,67.20
2022-08-31T07:46:37.441Z,67.00
2022-08-31T07:47:37.373Z,67.80
2022-08-31T07:48:37.370Z,68.41
2022-08-31T07:49:37.371Z,67.97
2022-08-31T07:50:37.368Z,67.88
2022-08-31T07:51:37.366Z,67.68
2022-08-31T07:52:37.364Z,68.01
2022-08-31T07:53:37.364Z,67.40
2022-08-31T07:54:37.360Z,66.70
2022-08-31T07:55:37.357Z,66.39
2022-08-31T07:56:37.355Z,66.90
2022-08-31T07:57:37.352Z,66.73
2022-08-31T07:58:37.350Z,66.53
2022-08-31T07:59:37.355Z,67.40
2022-08-31T08:00:37.345Z,66.90
2022-08-31T08:01:37.367Z,66.39
2022-08-31T08:02:37.417Z,66.50
2022-08-31T08:03:37.340Z,66.50
2022-08-31T08:04:37.334Z,66.39
2022-08-31T08:05:37.343Z,67.00
2022-08-31T08:06:37.330Z,66.70
2022-08-31T08:07:37.327Z,67.00
2022-08-31T08:08:37.326Z,66.47
2022-08-31T08:09:37.326Z,66.80
2022-08-31T08:10:37.320Z,68.08
2022-08-31T08:11:37.318Z,66.06
2022-08-31T08:12:37.322Z,66.27
2022-08-31T08:13:37.312Z,66.39
2022-08-31T08:14:37.310Z,67.40
2022-08-31T08:15:37.331Z,66.30
2022-08-31T08:16:37.353Z,66.80
2022-08-31T08:17:37.302Z,66.70
2022-08-31T08:18:37.299Z,68.01
2022-08-31T08:19:37.294Z,67.17
2022-08-31T08:20:38.855Z,67.64
2022-08-31T08:21:37.289Z,66.23
2022-08-31T08:22:51.639Z,67.71
2022-08-31T08:23:37.281Z,66.40
2022-08-31T08:24:37.282Z,66.30
2022-08-31T08:25:37.277Z,66.67
2022-08-31T08:26:37.274Z,65.97
2022-08-31T08:27:37.271Z,66.47
2022-08-31T08:28:40.218Z,66.17
2022-08-31T08:29:37.266Z,66.10
2022-08-31T08:30:37.262Z,66.30
2022-08-31T08:31:37.322Z,66.74
2022-08-31T08:32:37.262Z,66.80
2022-08-31T08:33:37.254Z,66.43
2022-08-31T08:34:37.251Z,68.11
2022-08-31T08:35:37.256Z,65.93
2022-08-31T08:36:37.248Z,66.56
2022-08-31T08:37:57.257Z,65.22
2022-08-31T08:38:37.242Z,66.13
2022-08-31T08:39:37.237Z,64.99
2022-08-31T08:40:37.342Z,64.09
2022-08-31T08:41:37.232Z,64.46
2022-08-31T08:42:37.231Z,64.96
2022-08-31T08:43:37.226Z,65.67
2022-08-31T08:44:37.223Z,66.47
2022-08-31T08:45:37.259Z,66.57
2022-08-31T08:46:37.262Z,66.34
2022-08-31T08:47:38.697Z,65.23
2022-08-31T08:48:37.213Z,65.94
2022-08-31T08:49:37.211Z,66.71
2022-08-31T08:50:37.210Z,63.79
2022-08-31T08:51:37.204Z,64.90
2022-08-31T08:52:37.202Z,62.12
2022-08-31T08:53:37.199Z,62.42
2022-08-31T08:54:37.196Z,62.24
2022-08-31T08:55:37.194Z,63.15
2022-08-31T08:56:37.194Z,64.06
2022-08-31T08:57:37.190Z,65.06
2022-08-31T08:58:37.191Z,65.13
2022-08-31T08:59:37.184Z,63.96
2022-08-31T09:00:37.180Z,64.13
2022-08-31T09:01:37.422Z,63.85
2022-08-31T09:02:37.224Z,62.95
2022-08-31T09:03:37.173Z,64.06
2022-08-31T09:04:37.171Z,64.36
2022-08-31T09:05:37.169Z,64.22
2022-08-31T09:06:45.368Z,63.99
2022-08-31T09:07:37.164Z,64.42
2022-08-31T09:08:37.162Z,64.82
2022-08-31T09:09:37.173Z,65.33
2022-08-31T09:10:37.156Z,64.19
2022-08-31T09:11:37.154Z,63.89
2022-08-31T09:12:37.151Z,63.45
2022-08-31T09:13:37.149Z,64.36
2022-08-31T09:14:37.147Z,62.75
2022-08-31T09:15:37.279Z,61.24
2022-08-31T09:16:37.146Z,62.95
2022-08-31T09:17:37.139Z,60.24
2022-08-31T09:18:37.136Z,57.62
2022-08-31T09:19:37.136Z,58.40
2022-08-31T09:20:37.131Z,59.70
2022-08-31T09:21:37.128Z,58.60
2022-08-31T09:22:37.125Z,58.70
2022-08-31T09:23:37.123Z,58.97
2022-08-31T09:24:37.120Z,57.57
2022-08-31T09:25:37.120Z,58.57
2022-08-31T09:26:37.115Z,58.47
2022-08-31T09:27:37.111Z,58.00
2022-08-31T09:28:37.116Z,58.40
2022-08-31T09:29:37.107Z,57.59
2022-08-31T09:30:37.105Z,59.23
2022-08-31T09:31:37.173Z,60.33
2022-08-31T09:32:37.101Z,59.80
2022-08-31T09:33:37.096Z,58.67
2022-08-31T09:34:37.096Z,58.27
2022-08-31T09:35:37.091Z,59.47
2022-08-31T09:36:37.092Z,57.87
2022-08-31T09:37:37.087Z,57.06
2022-08-31T09:38:37.084Z,57.34
2022-08-31T09:39:37.489Z,58.34
2022-08-31T09:40:37.121Z,57.44
2022-08-31T09:41:37.077Z,58.34
2022-08-31T09:42:37.079Z,57.11
2022-08-31T09:43:37.071Z,55.80
2022-08-31T09:44:37.070Z,55.40
2022-08-31T09:45:41.840Z,56.81
2022-08-31T09:46:37.067Z,55.30
2022-08-31T09:47:37.063Z,56.81
2022-08-31T09:48:37.060Z,57.01
2022-08-31T09:49:37.070Z,58.72
2022-08-31T09:50:37.065Z,58.51
2022-08-31T09:51:37.065Z,58.49
2022-08-31T09:52:37.052Z,56.18
2022-08-31T09:53:37.054Z,57.39
2022-08-31T09:54:37.049Z,56.96
2022-08-31T09:55:37.049Z,55.28
2022-08-31T09:56:37.042Z,56.48
2022-08-31T09:57:37.041Z,55.88
2022-08-31T09:58:37.039Z,57.48
2022-08-31T09:59:37.037Z,56.78
2022-08-31T10:00:37.036Z,55.78
2022-08-31T10:01:37.082Z,56.68
2022-08-31T10:02:37.035Z,56.71
2022-08-31T10:03:37.029Z,57.18
2022-08-31T10:04:37.122Z,57.48
2022-08-31T10:05:37.022Z,55.68
2022-08-31T10:06:37.022Z,57.98
2022-08-31T10:07:37.021Z,55.18
2022-08-31T10:08:37.020Z,55.28
2022-08-31T10:09:37.022Z,55.78
2022-08-31T10:10:37.017Z,57.48
2022-08-31T10:11:37.013Z,55.98
2022-08-31T10:12:37.010Z,56.18
2022-08-31T10:13:37.011Z,56.58
2022-08-31T10:14:37.008Z,55.30
2022-08-31T10:15:37.070Z,56.13
2022-08-31T10:16:37.004Z,56.93
2022-08-31T10:17:37.002Z,57.44
2022-08-31T10:18:37.000Z,56.74
2022-08-31T10:19:36.997Z,56.34
2022-08-31T10:20:36.997Z,57.06
2022-08-31T10:21:36.995Z,57.64
2022-08-31T10:22:36.994Z,56.84
2022-08-31T10:23:36.990Z,57.51
2022-08-31T10:24:36.990Z,56.91
2022-08-31T10:25:36.986Z,57.31
2022-08-31T10:26:36.985Z,55.47
2022-08-31T10:27:36.995Z,56.08
2022-08-31T10:28:36.982Z,54.77
2022-08-31T10:29:36.979Z,56.38
2022-08-31T10:30:36.983Z,55.18
2022-08-31T10:31:37.089Z,54.25
2022-08-31T10:32:36.972Z,55.25
2022-08-31T10:33:36.972Z,53.25
2022-08-31T10:34:36.968Z,55.05
2022-08-31T10:35:36.968Z,53.45
2022-08-31T10:36:36.962Z,54.75
2022-08-31T10:37:36.965Z,55.05
2022-08-31T10:38:36.961Z,54.75
2022-08-31T10:39:36.958Z,53.52
2022-08-31T10:40:36.972Z,54.17
2022-08-31T10:41:36.956Z,53.97
2022-08-31T10:42:36.952Z,54.77
2022-08-31T10:43:36.951Z,55.08
2022-08-31T10:44:36.950Z,54.88
2022-08-31T10:45:36.948Z,54.70
2022-08-31T10:46:36.985Z,54.20
2022-08-31T10:47:36.940Z,55.40
2022-08-31T10:48:36.949Z,55.23
2022-08-31T10:49:36.955Z,54.93
2022-08-31T10:50:36.939Z,55.71
2022-08-31T10:51:36.941Z,55.58
2022-08-31T10:52:36.934Z,53.97
2022-08-31T10:53:39.990Z,52.26
2022-08-31T10:54:36.932Z,53.45
2022-08-31T10:55:36.928Z,53.85
2022-08-31T10:56:36.921Z,52.92
2022-08-31T10:57:36.924Z,51.42
2022-08-31T10:58:36.921Z,52.34
2022-08-31T10:59:36.919Z,52.01
2022-08-31T11:00:36.918Z,50.63
2022-08-31T11:01:36.984Z,51.51
2022-08-31T11:02:36.913Z,53.12
2022-08-31T11:03:36.976Z,52.09
2022-08-31T11:04:36.972Z,52.69
2022-08-31T11:05:36.908Z,50.29
2022-08-31T11:06:36.907Z,50.19
2022-08-31T11:07:36.906Z,50.39
2022-08-31T11:08:36.901Z,49.19
2022-08-31T11:09:36.900Z,49.39
2022-08-31T11:10:36.901Z,50.69
2022-08-31T11:11:42.447Z,50.89
2022-08-31T11:12:36.911Z,50.69
2022-08-31T11:13:36.895Z,50.71
2022-08-31T11:14:36.891Z,51.49
2022-08-31T11:15:36.936Z,51.89
2022-08-31T11:16:36.888Z,51.07
2022-08-31T11:17:36.889Z,51.07
2022-08-31T11:18:36.886Z,50.57
2022-08-31T11:19:36.884Z,50.79
2022-08-31T11:20:36.881Z,50.51
2022-08-31T11:21:36.880Z,50.51
2022-08-31T11:22:36.880Z,50.81
2022-08-31T11:23:45.024Z,51.12
2022-08-31T11:24:37.598Z,50.42
2022-08-31T11:25:36.875Z,49.51
2022-08-31T11:26:36.872Z,50.21
2022-08-31T11:27:36.870Z,49.08
2022-08-31T11:28:36.870Z,49.29
2022-08-31T11:29:36.867Z,50.21
2022-08-31T11:30:41.736Z,50.09
2022-08-31T11:31:36.901Z,49.16
2022-08-31T11:32:36.863Z,49.37
2022-08-31T11:33:36.867Z,49.54
2022-08-31T11:34:36.859Z,47.86
2022-08-31T11:35:36.858Z,46.54
2022-08-31T11:36:36.854Z,46.66
2022-08-31T11:37:36.856Z,47.38
2022-08-31T11:38:36.856Z,47.71
2022-08-31T11:39:36.851Z,49.08
2022-08-31T11:40:36.900Z,47.19
2022-08-31T11:41:36.847Z,48.46
2022-08-31T11:42:36.843Z,48.07
2022-08-31T11:43:36.842Z,48.64
2022-08-31T11:44:36.840Z,49.41
2022-08-31T11:45:36.842Z,48.52
2022-08-31T11:46:36.866Z,47.34
2022-08-31T11:47:36.837Z,48.24
2022-08-31T11:48:36.835Z,47.74
2022-08-31T11:49:36.862Z,48.24
2022-08-31T11:50:36.885Z,48.34
2022-08-31T11:51:40.926Z,49.44
2022-08-31T11:52:36.829Z,49.94
2022-08-31T11:53:36.829Z,47.74
2022-08-31T11:54:36.828Z,48.76
2022-08-31T11:55:36.827Z,49.08
2022-08-31T11:56:36.825Z,49.39
2022-08-31T11:57:37.884Z,48.31
2022-08-31T11:58:36.822Z,50.31
2022-08-31T11:59:36.821Z,50.71
2022-08-31T12:00:36.820Z,49.39
2022-08-31T12:01:36.818Z,50.29
2022-08-31T12:02:36.875Z,48.26
2022-08-31T12:03:36.813Z,48.36
2022-08-31T12:04:36.811Z,46.86
2022-08-31T12:05:36.874Z,47.46
2022-08-31T12:06:36.811Z,48.57
2022-08-31T12:07:36.812Z,47.44
2022-08-31T12:08:36.806Z,47.54
2022-08-31T12:09:36.804Z,47.24
2022-08-31T12:10:36.804Z,47.24
2022-08-31T12:11:36.800Z,46.44
2022-08-31T12:12:36.800Z,46.04
2022-08-31T12:13:36.799Z,45.24
2022-08-31T12:14:36.800Z,45.94
2022-08-31T12:15:36.844Z,45.84
2022-08-31T12:16:36.794Z,47.06
2022-08-31T12:17:36.793Z,45.62
2022-08-31T12:18:36.793Z,46.92
2022-08-31T12:19:36.790Z,45.51
2022-08-31T12:20:36.788Z,45.01
2022-08-31T12:21:36.787Z,46.62
2022-08-31T12:22:36.787Z,45.21
2022-08-31T12:23:36.784Z,46.31
2022-08-31T12:24:36.783Z,45.29
2022-08-31T12:25:36.785Z,45.67
2022-08-31T12:26:38.770Z,44.09
2022-08-31T12:27:36.779Z,45.59
2022-08-31T12:28:36.777Z,45.59
2022-08-31T12:29:36.778Z,44.51
2022-08-31T12:30:36.785Z,44.12
2022-08-31T12:31:36.806Z,45.01
2022-08-31T12:32:36.772Z,44.82
2022-08-31T12:33:36.770Z,44.20
2022-08-31T12:34:36.771Z,44.70
2022-08-31T12:35:36.769Z,43.98
2022-08-31T12:36:36.769Z,44.17
2022-08-31T12:37:36.768Z,44.47
2022-08-31T12:38:36.765Z,43.87
2022-08-31T12:39:36.763Z,43.57
2022-08-31T12:40:36.919Z,42.69
2022-08-31T12:41:36.762Z,43.09
2022-08-31T12:42:36.763Z,43.90
2022-08-31T12:43:36.761Z,43.51
2022-08-31T12:44:36.758Z,43.93
2022-08-31T12:45:36.762Z,44.74
2022-08-31T12:46:37.047Z,44.13
2022-08-31T12:47:36.763Z,44.54
2022-08-31T12:48:36.754Z,43.04
2022-08-31T12:49:36.757Z,44.04
2022-08-31T12:50:36.752Z,43.82
2022-08-31T12:51:36.752Z,43.82
2022-08-31T12:52:36.753Z,43.62
2022-08-31T12:53:36.751Z,43.70
2022-08-31T12:54:36.749Z,42.99
2022-08-31T12:55:36.749Z,43.41
2022-08-31T12:56:36.747Z,43.82
2022-08-31T12:57:36.745Z,45.01